Time;durP1;ratioP1;P1;durP2;ratioP2;P2;SDS_P1;SDS_P2;PMS_P1;PMS_P2;Temp;Humidity;BMP_temperature;BMP_pressure;BME280_temperature;BME280_humidity;BME280_pressure;Samples;Min_cycle;Max_cycle;Signal;HPM_P1;HPM_P2
2022/03/03 00:01:20;;;;;;;4.53;2.63;;;;;;;13.79;65.24;100967.09;5051829;28;20104;-70
2022/03/03 00:03:47;;;;;;;12.90;3.37;;;;;;;13.79;65.73;100973.53;5050215;28;20059;-70
2022/03/03 00:06:14;;;;;;;5.43;2.33;;;;;;;13.68;66.13;100960.72;5053302;28;20052;-69
2022/03/03 00:08:41;;;;;;;8.83;3.93;;;;;;;13.58;66.51;100961.63;5032742;28;20548;-70
2022/03/03 00:11:07;;;;;;;9.07;3.80;;;;;;;13.42;66.78;100949.63;5049251;28;20048;-70
2022/03/03 00:13:34;;;;;;;6.57;2.60;;;;;;;13.43;66.90;100961.69;5035224;28;20128;-69
2022/03/03 00:16:03;;;;;;;7.17;2.83;;;;;;;13.56;66.69;100971.44;5050678;28;20571;-70
2022/03/03 00:18:30;;;;;;;6.10;2.70;;;;;;;13.52;66.94;100972.03;5051528;28;20053;-70
2022/03/03 00:20:57;;;;;;;23.33;4.57;;;;;;;13.39;67.64;100975.47;5051331;28;20080;-70
2022/03/03 00:23:24;;;;;;;7.47;3.43;;;;;;;13.30;68.03;100960.38;5040104;28;20080;-72
2022/03/03 00:25:51;;;;;;;7.10;3.00;;;;;;;13.00;69.73;100948.16;5051048;28;20128;-72
2022/03/03 00:28:18;;;;;;;4.90;2.30;;;;;;;12.98;70.23;100953.19;5052110;28;20085;-74
2022/03/03 00:30:44;;;;;;;3.73;2.27;;;;;;;12.77;71.53;100946.00;5049929;28;20136;-73
2022/03/03 00:33:12;;;;;;;2.17;1.67;;;;;;;12.40;71.99;100904.38;5030806;28;20476;-74
2022/03/03 00:35:39;;;;;;;5.43;1.93;;;;;;;12.54;72.79;100942.69;5046577;28;20045;-73
2022/03/03 00:38:06;;;;;;;5.27;2.10;;;;;;;12.39;73.02;100923.16;5045891;28;20127;-73
2022/03/03 00:40:33;;;;;;;14.23;2.30;;;;;;;12.28;73.64;100907.50;5049805;28;20111;-74
2022/03/03 00:43:00;;;;;;;14.67;1.83;;;;;;;12.31;74.06;100926.53;5049212;28;20095;-74
2022/03/03 00:45:28;;;;;;;2.10;1.60;;;;;;;12.19;74.15;100906.38;5048625;28;20098;-73
2022/03/03 00:47:55;;;;;;;5.93;2.03;;;;;;;12.42;75.05;100942.19;5048524;28;20136;-72
2022/03/03 00:50:22;;;;;;;5.33;1.70;;;;;;;12.38;76.12;100937.44;5050887;28;20618;-71
2022/03/03 00:52:49;;;;;;;7.60;2.40;;;;;;;12.27;75.90;100903.00;5025316;28;20091;-71
2022/03/03 00:55:16;;;;;;;8.87;1.50;;;;;;;12.43;76.70;100913.03;5048965;28;20087;-71
2022/03/03 00:57:42;;;;;;;5.43;1.80;;;;;;;12.34;77.35;100906.34;5045736;28;20144;-71
2022/03/03 01:00:10;;;;;;;9.50;2.27;;;;;;;12.41;77.46;100918.09;5046813;28;20152;-72
2022/03/03 01:02:37;;;;;;;7.10;1.93;;;;;;;12.45;77.53;100905.22;5028215;28;20145;-72
2022/03/03 01:05:05;;;;;;;6.73;2.53;;;;;;;12.38;78.09;100910.28;5047240;28;20061;-73
2022/03/03 01:07:32;;;;;;;6.53;2.30;;;;;;;12.37;78.51;100911.38;5025919;28;20110;-72
2022/03/03 01:09:59;;;;;;;2.60;1.93;;;;;;;12.33;78.80;100901.88;5028148;28;20471;-71
2022/03/03 01:12:26;;;;;;;5.67;2.33;;;;;;;12.30;79.14;100908.03;5047901;28;20132;-73
2022/03/03 01:14:53;;;;;;;6.03;1.70;;;;;;;12.29;79.34;100906.38;5045752;28;20139;-71
2022/03/03 01:17:20;;;;;;;6.03;1.80;;;;;;;12.23;79.74;100885.94;5042459;28;20072;-72
2022/03/03 01:19:46;;;;;;;9.37;2.30;;;;;;;12.25;79.87;100896.84;5015312;28;20127;-71
2022/03/03 01:22:15;;;;;;;4.40;1.33;;;;;;;12.21;80.04;100876.16;5050828;28;20440;-71
2022/03/03 01:24:43;;;;;;;5.87;1.90;;;;;;;12.17;79.68;100864.69;5054147;28;20492;-71
2022/03/03 01:27:10;;;;;;;3.90;1.50;;;;;;;12.17;80.61;100887.09;5051257;28;20045;-71
2022/03/03 01:29:37;;;;;;;11.87;1.77;;;;;;;12.22;80.49;100880.63;5051967;28;20080;-71
2022/03/03 01:32:05;;;;;;;2.47;1.03;;;;;;;12.11;80.61;100857.41;5049801;28;20084;-70
2022/03/03 01:34:33;;;;;;;6.73;2.00;;;;;;;12.17;80.87;100861.03;5049211;28;20091;-70
2022/03/03 01:37:00;;;;;;;2.50;2.30;;;;;;;12.23;80.73;100857.91;5049415;28;20145;-71
2022/03/03 01:39:27;;;;;;;3.97;1.47;;;;;;;11.99;81.03;100840.91;5025878;28;20136;-77
2022/03/03 01:41:55;;;;;;;7.73;1.47;;;;;;;12.25;80.73;100850.09;5050522;28;20573;-74
2022/03/03 01:44:22;;;;;;;9.10;3.07;;;;;;;12.21;80.96;100845.34;5053299;28;20093;-72
2022/03/03 01:46:55;;;;;;;8.33;2.27;;;;;;;12.30;80.47;100846.44;5053212;28;20088;-71
2022/03/03 01:49:23;;;;;;;10.03;2.40;;;;;;;12.18;81.08;100837.53;5051669;28;20095;-77
2022/03/03 01:51:51;;;;;;;2.47;1.23;;;;;;;12.01;81.55;100819.09;5050916;28;20140;-77
2022/03/03 01:54:18;;;;;;;2.80;1.53;;;;;;;11.99;81.42;100806.47;5048903;28;20140;-76
2022/03/03 01:56:46;;;;;;;6.10;2.27;;;;;;;12.18;81.33;100831.91;5055412;28;20091;-73
2022/03/03 01:59:14;;;;;;;3.97;2.43;;;;;;;12.09;81.67;100818.50;5051606;28;20124;-74
2022/03/03 02:01:41;;;;;;;10.40;2.60;;;;;;;12.06;81.67;100805.06;5053017;28;20135;-73
2022/03/03 02:04:09;;;;;;;9.30;1.93;;;;;;;12.20;81.56;100807.25;5046385;28;20053;-74
2022/03/03 02:06:37;;;;;;;3.30;1.80;;;;;;;12.05;81.89;100789.41;5053241;28;20069;-75
2022/03/03 02:09:04;;;;;;;3.73;1.67;;;;;;;12.12;81.57;100794.69;5051344;28;20148;-74
2022/03/03 02:11:31;;;;;;;8.77;2.00;;;;;;;12.18;81.69;100792.72;5037459;28;20076;-74
2022/03/03 02:14:01;;;;;;;5.07;1.50;;;;;;;12.00;82.40;100788.56;5052658;28;20056;-72
2022/03/03 02:16:28;;;;;;;1.90;1.13;;;;;;;11.62;83.27;100760.94;5046826;28;20133;-72
2022/03/03 02:18:55;;;;;;;4.00;1.93;;;;;;;11.78;83.46;100783.28;5049220;28;20045;-71
2022/03/03 02:21:22;;;;;;;4.27;1.60;;;;;;;11.85;83.39;100773.50;5047597;28;20168;-72
2022/03/03 02:23:49;;;;;;;3.73;1.07;;;;;;;11.68;83.73;100744.13;5042614;28;20133;-69
2022/03/03 02:26:19;;;;;;;9.33;2.00;;;;;;;11.48;83.95;100717.03;5052104;28;20095;-72
2022/03/03 02:28:48;;;;;;;6.28;1.25;;;;;;;11.67;84.58;100759.25;5046192;28;20132;-69
2022/03/03 02:31:15;;;;;;;7.40;1.70;;;;;;;11.68;84.57;100750.56;5048445;28;20128;-70
2022/03/03 02:33:42;;;;;;;8.43;6.57;;;;;;;11.83;83.63;100746.91;5051703;28;20045;-70
2022/03/03 02:36:23;;;;;;;6.30;2.73;;;;;;;11.75;84.56;100755.88;5049270;28;20132;-70
2022/03/03 02:38:52;;;;;;;33.13;30.53;;;;;;;11.78;84.33;100732.91;5052380;28;20208;-70
2022/03/03 02:41:20;;;;;;;29.07;26.67;;;;;;;11.82;84.45;100731.22;5053325;28;20121;-71
2022/03/03 02:43:47;;;;;;;38.07;35.30;;;;;;;11.79;84.45;100737.38;5040787;28;20091;-70
2022/03/03 02:46:14;;;;;;;33.83;31.33;;;;;;;11.83;84.36;100722.56;5050299;28;20080;-70
2022/03/03 02:48:41;;;;;;;38.03;35.43;;;;;;;11.79;84.58;100729.81;5050372;28;20057;-72
2022/03/03 02:51:09;;;;;;;33.37;30.90;;;;;;;11.78;84.54;100702.13;5054370;28;20128;-71
2022/03/03 02:53:36;;;;;;;37.00;34.60;;;;;;;11.83;84.83;100696.53;5053081;28;20176;-71
2022/03/03 02:56:05;;;;;;;36.10;33.80;;;;;;;11.72;85.19;100698.50;5052358;28;20088;-72
2022/03/03 02:58:32;;;;;;;36.40;34.10;;;;;;;11.74;85.21;100685.09;5042934;28;20133;-71
2022/03/03 03:01:01;;;;;;;37.17;34.70;;;;;;;11.72;84.93;100655.72;5044741;28;20131;-71
2022/03/03 03:03:28;;;;;;;36.90;34.20;;;;;;;11.57;84.92;100632.28;5051734;28;20095;-72
2022/03/03 03:05:55;;;;;;;39.27;36.47;;;;;;;11.90;84.82;100662.66;5047265;28;20159;-71
2022/03/03 03:08:22;;;;;;;35.90;33.50;;;;;;;11.92;84.71;100666.84;5046159;28;20080;-73
2022/03/03 03:10:49;;;;;;;37.90;35.40;;;;;;;11.84;85.08;100642.28;5046542;28;20081;-72
2022/03/03 03:13:16;;;;;;;35.90;33.20;;;;;;;12.00;84.49;100652.28;5051442;28;20136;-73
2022/03/03 03:15:44;;;;;;;36.30;33.90;;;;;;;11.94;84.78;100633.84;5052636;28;20080;-73
2022/03/03 03:18:20;;;;;;;36.03;33.83;;;;;;;11.87;84.63;100621.28;5050433;28;20102;-75
2022/03/03 03:20:50;;;;;;;34.43;32.33;;;;;;;12.03;84.51;100634.91;5053800;28;20127;-72
2022/03/03 03:23:18;;;;;;;32.58;30.48;;;;;;;12.13;84.33;100613.56;5043098;28;20085;-71
2022/03/03 03:25:46;;;;;;;32.03;30.13;;;;;;;12.12;84.52;100611.91;5047127;28;20084;-70
2022/03/03 03:28:15;;;;;;;31.67;29.77;;;;;;;12.07;84.81;100622.00;5049887;28;20095;-70
2022/03/03 03:30:42;;;;;;;32.13;29.83;;;;;;;12.11;84.79;100601.84;5049629;28;20087;-70
2022/03/03 03:33:09;;;;;;;30.90;29.10;;;;;;;12.14;84.59;100604.88;5049165;28;20131;-70
2022/03/03 03:35:36;;;;;;;32.90;30.90;;;;;;;12.17;84.66;100589.47;5051243;28;20132;-71
2022/03/03 03:38:04;;;;;;;32.57;30.67;;;;;;;12.13;84.91;100588.38;5046758;28;20087;-71
2022/03/03 03:40:31;;;;;;;31.40;29.50;;;;;;;12.07;85.02;100594.00;5053137;28;20076;-71
2022/03/03 03:42:58;;;;;;;33.80;31.80;;;;;;;12.16;85.15;100583.03;5048209;28;20132;-72
2022/03/03 03:45:25;;;;;;;36.40;34.20;;;;;;;12.24;84.97;100596.44;5048857;28;20041;-73
2022/03/03 03:47:52;;;;;;;34.13;32.03;;;;;;;12.24;85.02;100590.81;5050428;28;20091;-73
2022/03/03 03:50:19;;;;;;;33.53;31.57;;;;;;;12.23;85.15;100582.69;5051474;28;20045;-72
2022/03/03 03:52:46;;;;;;;33.67;31.67;;;;;;;12.34;84.93;100573.09;5047761;28;20136;-72
2022/03/03 03:55:13;;;;;;;35.30;33.20;;;;;;;12.21;85.19;100537.38;5033553;28;20567;-72
2022/03/03 03:57:40;;;;;;;33.50;31.30;;;;;;;12.33;84.91;100549.03;5046153;28;20412;-71
2022/03/03 04:00:16;;;;;;;31.13;29.23;;;;;;;12.27;85.18;100541.78;5049004;28;20080;-72
2022/03/03 04:02:45;;;;;;;31.07;29.17;;;;;;;12.26;85.33;100545.72;5047847;28;20479;-71
2022/03/03 04:05:13;;;;;;;32.07;30.07;;;;;;;12.19;85.18;100520.03;5047073;28;20517;-72
2022/03/03 04:07:41;;;;;;;34.20;32.10;;;;;;;12.32;85.39;100541.75;5030685;28;20438;-71
2022/03/03 04:10:08;;;;;;;34.07;31.93;;;;;;;12.09;85.44;100496.56;5045123;28;20120;-70
2022/03/03 04:12:35;;;;;;;0.57;0.57;;;;;;;12.37;85.14;100533.31;5052260;28;20052;-70
2022/03/03 04:15:03;;;;;;;1.80;0.93;;;;;;;12.32;85.22;100503.38;5050668;28;20088;-69
2022/03/03 04:17:31;;;;;;;0.77;0.53;;;;;;;12.37;85.49;100510.06;5051457;28;20053;-71
2022/03/03 04:20:05;;;;;;;4.23;0.80;;;;;;;12.42;85.20;100502.47;5047939;28;20072;-71
2022/03/03 04:22:32;;;;;;;0.57;0.50;;;;;;;12.46;85.27;100500.75;5044264;28;20081;-70
2022/03/03 04:25:00;;;;;;;0.57;0.50;;;;;;;12.47;85.52;100502.41;5052902;28;20062;-71
2022/03/03 04:27:27;;;;;;;1.43;0.70;;;;;;;12.48;85.22;100494.84;5032795;28;20049;-71
2022/03/03 04:29:54;;;;;;;0.43;0.40;;;;;;;12.60;84.92;100498.09;5048780;28;20084;-70
2022/03/03 04:32:21;;;;;;;0.77;0.63;;;;;;;12.57;85.00;100493.91;5047677;28;20132;-70
2022/03/03 04:34:48;;;;;;;1.50;0.80;;;;;;;12.63;84.97;100491.06;5047265;28;20123;-70
2022/03/03 04:37:15;;;;;;;1.00;0.70;;;;;;;12.61;85.18;100496.13;5048378;28;20468;-68
2022/03/03 04:39:41;;;;;;;0.50;0.50;;;;;;;12.67;85.05;100480.94;5047703;28;20053;-70
2022/03/03 04:42:08;;;;;;;5.57;5.27;;;;;;;12.61;85.06;100454.09;5064936;28;20060;-69
2022/03/03 04:44:35;;;;;;;7.90;7.50;;;;;;;12.52;85.20;100459.53;5053979;28;20421;-71
2022/03/03 04:47:02;;;;;;;8.87;8.40;;;;;;;12.55;85.54;100459.75;5050218;28;20285;-69
2022/03/03 04:49:29;;;;;;;10.33;9.83;;;;;;;12.64;85.14;100468.34;5049377;28;20048;-69
2022/03/03 04:51:56;;;;;;;10.87;10.37;;;;;;;12.69;84.98;100451.50;5038454;28;20128;-70
2022/03/03 04:54:23;;;;;;;3.30;1.33;;;;;;;12.64;85.53;100450.69;5050323;28;20128;-70
2022/03/03 04:56:51;;;;;;;4.00;1.07;;;;;;;12.65;85.38;100438.34;5032613;28;20049;-71
2022/03/03 04:59:18;;;;;;;6.33;1.73;;;;;;;12.66;85.28;100428.84;5051926;28;20076;-70
2022/03/03 05:01:45;;;;;;;2.10;1.37;;;;;;;12.60;85.06;100410.41;5047138;28;20128;-72
2022/03/03 05:04:12;;;;;;;2.97;1.47;;;;;;;12.86;84.96;100424.97;5043857;28;20048;-70
2022/03/03 05:06:46;;;;;;;6.93;1.97;;;;;;;12.81;85.39;100414.63;5049215;28;20056;-70
2022/03/03 05:09:13;;;;;;;5.37;1.97;;;;;;;12.89;84.97;100418.72;5051258;28;20132;-73
2022/03/03 05:11:40;;;;;;;5.33;1.83;;;;;;;12.88;85.13;100403.88;5049500;28;20041;-72
2022/03/03 05:14:07;;;;;;;6.30;1.10;;;;;;;12.90;84.95;100401.63;5051938;28;20470;-71
2022/03/03 05:16:34;;;;;;;5.00;1.63;;;;;;;12.89;85.39;100399.13;5049812;28;20049;-71
2022/03/03 05:19:02;;;;;;;5.83;2.20;;;;;;;12.66;85.44;100350.41;5062294;28;20067;-71
2022/03/03 05:21:31;;;;;;;5.83;1.67;;;;;;;12.85;85.40;100370.03;5072493;28;20079;-72
2022/03/03 05:24:02;;;;;;;4.20;2.27;;;;;;;12.84;85.38;100359.97;5047472;28;20561;-71
2022/03/03 05:26:29;;;;;;;6.10;2.00;;;;;;;12.86;85.73;100368.91;5029405;28;20053;-72
2022/03/03 05:28:55;;;;;;;4.83;1.43;;;;;;;12.72;85.68;100338.81;5050281;28;20076;-71
2022/03/03 05:31:22;;;;;;;4.83;1.60;;;;;;;12.90;85.67;100354.00;5050404;28;20132;-72
2022/03/03 05:33:50;;;;;;;4.97;4.67;;;;;;;12.97;85.65;100348.84;5023594;28;20099;-74
2022/03/03 05:36:17;;;;;;;2.67;0.83;;;;;;;12.98;85.69;100364.50;5034792;28;20090;-73
2022/03/03 05:38:44;;;;;;;3.57;1.20;;;;;;;12.99;85.93;100349.38;5051004;28;20045;-72
2022/03/03 05:41:11;;;;;;;0.77;0.70;;;;;;;13.10;85.45;100357.66;5048637;28;20076;-72
2022/03/03 05:43:38;;;;;;;2.00;1.63;;;;;;;13.20;85.33;100363.13;5046090;28;20056;-73
2022/03/03 05:46:05;;;;;;;10.53;1.80;;;;;;;13.30;84.95;100370.53;5071831;28;20025;-72
2022/03/03 05:48:33;;;;;;;1.80;1.27;;;;;;;13.16;85.29;100354.47;5055375;28;20061;-72
2022/03/03 05:51:00;;;;;;;1.90;1.30;;;;;;;13.33;84.92;100379.19;5053531;28;20060;-70
2022/03/03 05:53:27;;;;;;;4.53;1.37;;;;;;;13.32;85.06;100371.91;5065087;28;20025;-72
2022/03/03 05:55:57;;;;;;;1.60;1.03;;;;;;;13.37;85.03;100407.50;5068412;28;20060;-71
2022/03/03 05:58:40;;;;;;;;;;;;;;;13.51;85.07;100426.06;5071848;28;20045;-72
2022/03/03 06:01:09;;;;;;;5.23;1.37;;;;;;;13.29;84.77;100406.19;5068312;28;19940;-71
2022/03/03 06:03:37;;;;;;;1.17;0.60;;;;;;;13.39;84.82;100459.31;5070122;28;20048;-75
2022/03/03 06:06:07;;;;;;;0.67;0.30;;;;;;;13.05;84.18;100437.88;5051379;28;20052;-74
2022/03/03 06:08:41;;;;;;;0.80;0.32;;;;;;;12.95;83.99;100442.78;5049115;28;20472;-74
2022/03/03 06:11:14;;;;;;;1.50;0.50;;;;;;;13.09;83.95;100454.91;5053262;28;20047;-73
2022/03/03 06:13:46;;;;;;;29.60;27.50;;;;;;;13.11;83.83;100466.69;5051936;28;20045;-74
2022/03/03 06:16:20;;;;;;;7.70;5.90;;;;;;;13.08;83.80;100480.47;5049057;28;20135;-74
2022/03/03 06:18:49;;;;;;;2.67;1.17;;;;;;;13.10;83.65;100472.59;5048328;28;20053;-75
2022/03/03 06:21:17;;;;;;;0.20;0.20;;;;;;;13.03;83.72;100486.97;5053115;28;20091;-75
2022/03/03 06:23:45;;;;;;;3.90;0.40;;;;;;;13.02;83.79;100500.16;5046056;28;20393;-72
2022/03/03 06:26:15;;;;;;;34.20;32.00;;;;;;;13.03;83.70;100501.81;5047806;28;20582;-72
2022/03/03 06:28:43;;;;;;;31.10;28.90;;;;;;;13.04;83.70;100522.28;5049797;28;20059;-75
2022/03/03 06:31:10;;;;;;;8.13;7.53;;;;;;;13.07;83.63;100523.66;5061377;28;20076;-74
2022/03/03 06:33:37;;;;;;;29.70;27.80;;;;;;;13.07;83.55;100512.44;5055273;28;20052;-74
2022/03/03 06:36:05;;;;;;;29.77;27.47;;;;;;;13.03;83.57;100493.41;5055196;28;20500;-77
2022/03/03 06:38:32;;;;;;;28.93;26.93;;;;;;;12.99;83.57;100506.38;5052898;28;20164;-73
2022/03/03 06:41:05;;;;;;;28.83;27.03;;;;;;;12.88;83.47;100473.13;5043345;28;20055;-72
2022/03/03 06:43:34;;;;;;;26.52;25.02;;;;;;;12.98;83.49;100482.25;5046066;28;20103;-74
2022/03/03 06:46:02;;;;;;;27.70;26.10;;;;;;;12.89;83.46;100478.44;5032107;28;20076;-71
2022/03/03 06:48:29;;;;;;;4.33;0.77;;;;;;;12.70;83.39;100474.72;5050425;28;20083;-82
2022/03/03 06:50:56;;;;;;;4.93;1.37;;;;;;;12.58;83.64;100463.94;5046363;28;20077;-76
2022/03/03 06:53:31;;;;;;;9.23;0.93;;;;;;;12.64;83.65;100470.31;5039268;28;20059;-76
2022/03/03 06:56:10;;;;;;;17.00;15.97;;;;;;;12.59;83.88;100456.38;5030925;28;20044;-80
2022/03/03 06:58:38;;;;;;;24.30;22.50;;;;;;;12.49;83.86;100441.34;5049850;28;20140;-74
2022/03/03 07:01:09;;;;;;;1.17;0.70;;;;;;;12.31;83.73;100464.50;5033159;28;20480;-78
2022/03/03 07:03:39;;;;;;;32.37;30.60;;;;;;;12.22;83.66;100497.88;5025607;28;20407;-75
2022/03/03 07:06:07;;;;;;;39.92;37.63;;;;;;;12.09;82.94;100510.56;5042177;28;20074;-78
2022/03/03 07:08:34;;;;;;;25.10;23.80;;;;;;;11.73;82.72;100506.34;5044718;28;20080;-76
2022/03/03 07:11:01;;;;;;;25.60;23.93;;;;;;;11.83;82.08;100520.25;5028322;28;20069;-76
2022/03/03 07:13:28;;;;;;;20.47;19.30;;;;;;;11.73;82.27;100534.31;5048355;28;20558;-76
2022/03/03 07:16:36;;;;;;;19.80;18.70;;;;;;;11.53;82.35;100488.53;5046353;28;20052;-76
2022/03/03 07:19:04;;;;;;;19.63;18.00;;;;;;;11.61;81.85;100535.47;5032746;28;20535;-77
2022/03/03 07:21:52;;;;;;;18.10;16.90;;;;;;;11.71;81.88;100559.75;5072078;28;20048;-77
2022/03/03 07:24:28;;;;;;;18.33;17.10;;;;;;;11.69;81.73;100572.34;5049406;28;20802;-75
2022/03/03 07:27:00;;;;;;;18.60;17.20;;;;;;;11.45;81.72;100544.22;5043037;28;20103;-75
2022/03/03 07:29:31;;;;;;;17.80;16.63;;;;;;;11.49;81.88;100576.94;5043808;28;20045;-74
2022/03/03 07:32:04;;;;;;;16.77;15.67;;;;;;;11.47;82.00;100581.16;5043621;28;20136;-73
2022/03/03 07:34:33;;;;;;;16.03;15.00;;;;;;;11.42;81.52;100596.00;5048600;28;20134;-73
2022/03/03 07:37:07;;;;;;;15.80;14.87;;;;;;;11.40;81.65;100589.84;5045311;28;20167;-73
2022/03/03 07:39:45;;;;;;;18.03;16.83;;;;;;;11.39;81.52;100596.56;5043620;28;20054;-70
2022/03/03 07:42:14;;;;;;;15.50;14.73;;;;;;;11.35;81.57;100596.28;5046902;28;20091;-74
2022/03/03 07:44:41;;;;;;;17.00;15.67;;;;;;;11.33;81.33;100580.91;5044153;28;20140;-73
2022/03/03 07:47:08;;;;;;;15.87;14.87;;;;;;;11.38;81.41;100604.13;5045598;28;20060;-70
2022/03/03 07:49:36;;;;;;;21.33;20.30;;;;;;;11.32;81.23;100584.84;5043128;28;20047;-76
2022/03/03 07:52:04;;;;;;;15.47;14.63;;;;;;;11.47;81.68;100604.34;5045440;28;20155;-75
2022/03/03 07:54:32;;;;;;;15.60;14.60;;;;;;;11.49;81.50;100601.28;5044668;28;21156;-74
2022/03/03 07:57:00;;;;;;;17.03;15.20;;;;;;;11.22;81.38;100559.72;5041668;28;20084;-76
2022/03/03 07:59:32;;;;;;;19.87;18.77;;;;;;;11.34;81.18;100586.22;5050492;28;20128;-77
2022/03/03 08:02:02;;;;;;;18.83;17.83;;;;;;;11.59;81.00;100623.63;5050662;28;20128;-76
2022/03/03 08:04:30;;;;;;;;;;;;;;;11.61;81.34;100616.59;5047363;28;20516;-77
2022/03/03 08:07:07;;;;;;;14.60;13.90;;;;;;;11.61;80.90;100622.19;5052370;28;19928;-77
2022/03/03 08:09:36;;;;;;;15.43;14.50;;;;;;;11.52;81.14;100618.31;5049413;28;20084;-76
2022/03/03 08:12:05;;;;;;;18.13;16.67;;;;;;;11.58;81.06;100622.75;5052951;28;20053;-77
2022/03/03 08:14:32;;;;;;;14.93;14.13;;;;;;;11.59;81.06;100618.84;5053295;28;20049;-76
2022/03/03 08:17:00;;;;;;;15.30;14.13;;;;;;;11.60;81.04;100625.28;5053004;28;20136;-77
2022/03/03 08:19:28;;;;;;;18.03;16.80;;;;;;;11.60;81.15;100628.91;5050000;28;20128;-76
2022/03/03 08:21:55;;;;;;;18.63;17.63;;;;;;;11.55;81.12;100628.09;5049890;28;20108;-77
2022/03/03 08:24:24;;;;;;;15.67;14.27;;;;;;;11.57;81.06;100621.09;5050608;28;20136;-77
2022/03/03 08:26:54;;;;;;;13.70;12.90;;;;;;;11.50;81.28;100626.16;5049397;28;20103;-76
2022/03/03 08:29:22;;;;;;;14.23;13.35;;;;;;;11.51;81.14;100633.41;5052480;28;20601;-76
2022/03/03 08:31:53;;;;;;;13.50;12.60;;;;;;;11.32;81.41;100590.44;5043201;28;20081;-76
2022/03/03 08:34:46;;;;;;;14.27;13.03;;;;;;;11.57;81.45;100640.66;5051903;28;20044;-75
2022/03/03 08:37:34;;;;;;;13.77;12.73;;;;;;;11.65;81.65;100638.41;5020958;28;20137;-77
2022/03/03 08:40:02;;;;;;;13.90;13.07;;;;;;;11.61;81.72;100641.75;5051110;28;20084;-76
2022/03/03 08:42:35;;;;;;;15.20;14.10;;;;;;;11.59;81.76;100644.03;5051215;28;20118;-75
2022/03/03 08:45:06;;;;;;;14.47;13.67;;;;;;;11.66;81.84;100635.34;5050507;28;20084;-76
2022/03/03 08:47:33;;;;;;;14.77;13.13;;;;;;;11.66;82.04;100645.66;5052412;28;20044;-76
2022/03/03 08:50:04;;;;;;;14.83;13.80;;;;;;;11.70;82.38;100646.78;5045559;28;20664;-76
2022/03/03 08:52:52;;;;;;;16.73;15.73;;;;;;;11.68;82.03;100635.03;5043656;28;20421;-75
2022/03/03 08:55:20;;;;;;;14.47;13.30;;;;;;;11.80;82.29;100652.34;5044353;28;20041;-74
2022/03/03 08:57:47;;;;;;;12.83;12.03;;;;;;;11.69;82.41;100617.97;5048739;28;20195;-75
2022/03/03 09:00:14;;;;;;;12.87;12.07;;;;;;;11.91;82.47;100651.19;5048849;28;20103;-75
2022/03/03 09:02:42;;;;;;;12.97;12.27;;;;;;;11.96;82.33;100641.94;5026451;28;20095;-74
2022/03/03 09:05:10;;;;;;;13.13;12.13;;;;;;;12.09;82.62;100633.72;5050202;28;20057;-74
2022/03/03 09:07:38;;;;;;;14.20;13.10;;;;;;;12.11;82.48;100636.25;5048953;28;20047;-75
2022/03/03 09:10:06;;;;;;;13.03;11.93;;;;;;;12.12;82.28;100642.69;5047298;28;20143;-76
2022/03/03 09:12:34;;;;;;;13.77;12.43;;;;;;;12.18;82.15;100624.75;5050062;28;20579;-74
2022/03/03 09:15:01;;;;;;;11.80;10.90;;;;;;;12.15;82.14;100647.72;5050525;28;20094;-75
2022/03/03 09:17:31;;;;;;;11.53;10.67;;;;;;;12.06;81.93;100651.09;5048838;28;20084;-75
2022/03/03 09:20:00;;;;;;;11.93;11.23;;;;;;;12.11;82.14;100657.81;5047048;28;20535;-74
2022/03/03 09:22:28;;;;;;;15.70;11.80;;;;;;;12.14;82.10;100646.06;5043809;28;20480;-74
2022/03/03 09:24:55;;;;;;;14.57;10.50;;;;;;;12.33;82.16;100672.22;5045928;28;20095;-74
2022/03/03 09:27:23;;;;;;;10.80;10.00;;;;;;;12.35;82.27;100667.19;5038706;28;20518;-74
2022/03/03 09:29:50;;;;;;;11.67;10.57;;;;;;;12.26;82.08;100652.13;5045881;28;20085;-74
2022/03/03 09:32:18;;;;;;;11.17;9.77;;;;;;;12.27;81.97;100657.44;5048621;28;20130;-75
2022/03/03 09:34:47;;;;;;;10.53;9.63;;;;;;;12.48;81.78;100660.94;5040028;28;20091;-74
2022/03/03 09:37:14;;;;;;;9.10;8.40;;;;;;;12.41;81.13;100690.38;5047048;28;20148;-74
2022/03/03 09:39:43;;;;;;;10.23;9.43;;;;;;;12.52;81.30;100706.84;5051252;28;20069;-74
2022/03/03 09:42:10;;;;;;;10.30;9.63;;;;;;;12.76;81.51;100704.16;5034823;28;20088;-74
2022/03/03 09:44:37;;;;;;;10.90;9.80;;;;;;;12.78;81.31;100704.69;5055069;28;20171;-74
2022/03/03 09:47:04;;;;;;;9.83;9.20;;;;;;;12.74;80.92;100722.38;5048784;28;20048;-74
2022/03/03 09:49:31;;;;;;;9.90;9.20;;;;;;;12.44;80.75;100667.41;5053709;28;20095;-74
2022/03/03 09:51:58;;;;;;;11.63;9.77;;;;;;;12.75;80.53;100727.72;5050599;28;20079;-74
2022/03/03 09:54:25;;;;;;;10.13;9.13;;;;;;;12.87;80.24;100732.13;5051366;28;20550;-73
2022/03/03 09:56:52;;;;;;;9.90;9.13;;;;;;;12.85;80.08;100711.94;5062361;28;20038;-73
2022/03/03 09:59:19;;;;;;;9.87;9.13;;;;;;;13.19;80.32;100723.16;5069324;28;20044;-73
2022/03/03 10:01:46;;;;;;;10.03;9.33;;;;;;;13.84;80.16;100739.66;5050002;28;20081;-74
2022/03/03 10:04:24;;;;;;;9.70;9.10;;;;;;;14.60;79.87;100735.06;5046113;28;20052;-73
2022/03/03 10:06:52;;;;;;;9.20;8.60;;;;;;;15.05;79.63;100715.81;5044442;28;20083;-75
2022/03/03 10:09:18;;;;;;;9.93;9.27;;;;;;;15.44;78.99;100721.03;5032385;28;20140;-74
2022/03/03 10:11:48;;;;;;;12.32;11.50;;;;;;;16.19;78.18;100733.94;5050244;28;20056;-73
2022/03/03 10:14:43;;;;;;;14.13;13.27;;;;;;;16.77;76.40;100733.25;5029870;28;20080;-72
2022/03/03 10:17:10;;;;;;;13.38;12.60;;;;;;;17.29;75.21;100733.66;5043807;28;20522;-73
2022/03/03 10:19:53;;;;;;;;;;;;;;;17.56;74.49;100733.84;5016772;28;20158;-73
2022/03/03 10:22:43;;;;;;;;;;;;;;;17.91;74.17;100740.53;5044857;28;20012;-74
2022/03/03 10:25:12;;;;;;;10.37;9.13;;;;;;;18.19;73.25;100687.44;5044209;28;20011;-74
2022/03/03 10:27:39;;;;;;;10.90;10.20;;;;;;;18.78;71.36;100741.63;5041561;28;20329;-74
2022/03/03 10:30:10;;;;;;;9.50;8.65;;;;;;;19.11;71.38;100722.16;5031529;28;20077;-74
2022/03/03 10:32:39;;;;;;;9.02;8.32;;;;;;;19.21;69.97;100740.78;5050015;28;20049;-74
2022/03/03 10:35:19;;;;;;;10.07;9.43;;;;;;;19.29;70.14;100722.16;5043086;28;20132;-73
2022/03/03 10:37:46;;;;;;;;;;;;;;;18.96;71.69;100717.00;5041600;28;20045;-73
2022/03/03 10:40:16;;;;;;;8.98;8.02;;;;;;;18.75;70.78;100707.53;5038740;28;20012;-73
2022/03/03 10:42:50;;;;;;;14.38;13.23;;;;;;;18.28;71.37;100682.63;5023130;28;20496;-73
2022/03/03 10:45:19;;;;;;;12.57;11.77;;;;;;;18.66;71.22;100724.44;5047708;28;20127;-73
2022/03/03 10:48:00;;;;;;;9.48;8.85;;;;;;;18.85;70.59;100729.81;5046786;28;20054;-74
2022/03/03 10:50:46;;;;;;;8.98;8.38;;;;;;;18.88;69.05;100715.84;5042585;28;20139;-74
2022/03/03 10:53:17;;;;;;;9.30;8.70;;;;;;;18.89;68.90;100736.47;5042642;28;20045;-74
2022/03/03 10:56:05;;;;;;;12.25;11.32;;;;;;;19.05;69.14;100734.00;5041816;28;20045;-74
2022/03/03 10:58:52;;;;;;;12.30;11.57;;;;;;;18.81;67.30;100728.84;5029601;28;20080;-72
2022/03/03 11:01:22;;;;;;;11.93;10.70;;;;;;;18.62;68.11;100707.31;5046961;28;20049;-74
2022/03/03 11:03:50;;;;;;;10.48;9.25;;;;;;;18.78;67.07;100673.75;5051879;28;20059;-73
2022/03/03 11:06:20;;;;;;;8.93;8.32;;;;;;;18.88;66.64;100720.69;5028709;28;20140;-73
2022/03/03 11:08:49;;;;;;;9.10;8.40;;;;;;;19.25;65.94;100738.13;5050876;28;20496;-72
2022/03/03 11:11:16;;;;;;;9.55;8.93;;;;;;;19.71;64.64;100739.41;5053030;28;20471;-73
2022/03/03 11:13:47;;;;;;;9.32;8.75;;;;;;;19.90;64.43;100731.34;5049915;28;20052;-73
2022/03/03 11:16:22;;;;;;;10.45;9.65;;;;;;;19.95;65.49;100733.16;5034512;28;20265;-73
2022/03/03 11:18:49;;;;;;;8.13;7.45;;;;;;;19.62;63.86;100736.56;5052580;28;20080;-72
2022/03/03 11:21:16;;;;;;;8.32;7.72;;;;;;;19.30;63.35;100747.28;5045773;28;20132;-73
2022/03/03 11:23:52;;;;;;;9.45;7.82;;;;;;;18.90;64.29;100755.13;5028297;28;20570;-73
2022/03/03 11:26:41;;;;;;;11.07;10.25;;;;;;;18.34;64.27;100703.09;5050174;28;20135;-73
2022/03/03 11:29:10;;;;;;;8.32;7.63;;;;;;;17.49;62.13;100745.59;5045689;28;20604;-74